Time;durP1;ratioP1;P1;durP2;ratioP2;P2;SDS_P1;SDS_P2;PMS_P1;PMS_P2;Temp;Humidity;BMP_temperature;BMP_pressure;BME280_temperature;BME280_humidity;BME280_pressure;Samples;Min_cycle;Max_cycle;Signal;HPM_P1;HPM_P2
2022/02/14 00:01:50;;;;;;;7.07;3.20;;;9.40;89.50;;;;;;5040253;28;20040;-71
2022/02/14 00:04:16;;;;;;;6.30;2.97;;;9.40;89.10;;;;;;5022162;28;20560;-71
2022/02/14 00:06:42;;;;;;;6.93;3.17;;;9.50;88.90;;;;;;5023470;28;20403;-70
2022/02/14 00:09:08;;;;;;;7.97;3.10;;;9.50;88.80;;;;;;5040919;28;20045;-70
2022/02/14 00:11:33;;;;;;;7.90;3.40;;;9.50;88.60;;;;;;5038873;28;20072;-70
2022/02/14 00:14:00;;;;;;;6.25;2.97;;;9.40;88.70;;;;;;5039358;28;20068;-70
2022/02/14 00:16:26;;;;;;;7.28;3.10;;;9.40;89.20;;;;;;5040691;28;20114;-71
2022/02/14 00:18:51;;;;;;;8.68;3.25;;;9.40;89.40;;;;;;5039141;28;20052;-71
2022/02/14 00:21:17;;;;;;;7.63;3.47;;;9.40;90.00;;;;;;5042564;28;20028;-71
2022/02/14 00:23:43;;;;;;;8.13;3.38;;;9.30;89.70;;;;;;5044901;28;20516;-71
2022/02/14 00:26:09;;;;;;;5.72;2.80;;;9.40;90.00;;;;;;5041724;28;20029;-71
2022/02/14 00:28:35;;;;;;;7.03;2.72;;;9.30;90.10;;;;;;5026605;28;20040;-71
2022/02/14 00:31:00;;;;;;;6.32;2.72;;;9.40;90.10;;;;;;5041427;28;20067;-71
2022/02/14 00:33:26;;;;;;;7.28;3.10;;;9.30;90.00;;;;;;5044827;28;20040;-71
2022/02/14 00:35:52;;;;;;;8.23;2.92;;;9.40;90.00;;;;;;5041029;28;20501;-71
2022/02/14 00:38:17;;;;;;;6.43;2.67;;;9.40;90.00;;;;;;5043705;28;20033;-71
2022/02/14 00:40:43;;;;;;;7.38;3.35;;;9.40;90.10;;;;;;5043627;28;20150;-71
2022/02/14 00:43:09;;;;;;;5.88;3.03;;;9.40;90.10;;;;;;5043048;28;20060;-71
2022/02/14 00:45:34;;;;;;;6.93;3.15;;;9.40;90.20;;;;;;5043286;28;20043;-71
2022/02/14 00:48:01;;;;;;;6.15;2.80;;;9.40;90.20;;;;;;5027866;28;20301;-71
2022/02/14 00:50:27;;;;;;;6.90;3.33;;;9.40;90.10;;;;;;5040207;28;20119;-71
2022/02/14 00:52:52;;;;;;;8.38;3.08;;;9.50;90.30;;;;;;5043372;28;20631;-71
2022/02/14 00:55:18;;;;;;;7.22;3.10;;;9.50;90.30;;;;;;5043975;28;20404;-71
2022/02/14 00:57:47;;;;;;;4.75;2.72;;;9.50;90.30;;;;;;5039810;28;20072;-71
2022/02/14 01:00:14;;;;;;;6.93;2.70;;;9.50;90.30;;;;;;5044008;28;20065;-71
2022/02/14 01:02:40;;;;;;;8.77;3.60;;;9.60;90.20;;;;;;5044143;28;20151;-71
2022/02/14 01:05:08;;;;;;;6.82;3.10;;;9.50;90.20;;;;;;5041710;28;20394;-71
2022/02/14 01:07:34;;;;;;;8.43;2.88;;;9.50;90.20;;;;;;5026643;28;20033;-71
2022/02/14 01:10:00;;;;;;;9.63;2.95;;;9.50;90.10;;;;;;5028005;28;20049;-71
2022/02/14 01:12:29;;;;;;;5.10;2.80;;;9.50;90.20;;;;;;5039131;28;20437;-71
2022/02/14 01:14:55;;;;;;;5.97;3.15;;;9.40;90.30;;;;;;5042255;28;20354;-71
2022/02/14 01:17:22;;;;;;;10.00;2.80;;;9.40;90.40;;;;;;5043744;28;20132;-71
2022/02/14 01:19:47;;;;;;;8.45;2.80;;;9.20;90.50;;;;;;5040096;28;20048;-71
2022/02/14 01:22:13;;;;;;;6.90;2.88;;;9.30;90.70;;;;;;5038859;28;20029;-71
2022/02/14 01:24:40;;;;;;;10.10;2.88;;;9.20;90.80;;;;;;5041804;28;20490;-71
2022/02/14 01:27:05;;;;;;;10.75;3.00;;;9.20;90.90;;;;;;5041097;28;20055;-71
2022/02/14 01:29:33;;;;;;;6.85;2.65;;;9.20;91.00;;;;;;5040233;28;20033;-71
2022/02/14 01:31:59;;;;;;;8.73;2.60;;;9.20;91.10;;;;;;5041804;28;20823;-71
2022/02/14 01:34:24;;;;;;;8.38;2.97;;;9.20;91.10;;;;;;5042608;28;20053;-71
2022/02/14 01:36:50;;;;;;;8.20;2.97;;;9.30;91.10;;;;;;5039553;28;20029;-71
2022/02/14 01:39:17;;;;;;;6.10;2.85;;;9.30;91.20;;;;;;5040910;28;20071;-72
2022/02/14 01:41:43;;;;;;;8.18;3.00;;;9.30;91.20;;;;;;5040822;28;20091;-71
2022/02/14 01:44:33;;;;;;;6.07;2.88;;;9.20;91.10;;;;;;5041378;28;20421;-71
2022/02/14 01:46:59;;;;;;;6.13;2.85;;;9.20;91.20;;;;;;5025786;28;20179;-71
2022/02/14 01:49:24;;;;;;;7.20;3.10;;;9.20;91.20;;;;;;5042030;28;20540;-71
2022/02/14 01:51:50;;;;;;;9.35;3.08;;;9.30;91.30;;;;;;5037987;28;20041;-72
2022/02/14 01:54:16;;;;;;;10.63;3.03;;;9.20;91.40;;;;;;5041431;28;20425;-71
2022/02/14 01:56:42;;;;;;;6.07;2.88;;;9.20;91.50;;;;;;5042974;28;20053;-71
2022/02/14 01:59:08;;;;;;;7.13;3.55;;;9.20;91.50;;;;;;5023581;28;20060;-71
2022/02/14 02:01:34;;;;;;;6.28;2.70;;;9.20;91.60;;;;;;5038566;28;20408;-72
2022/02/14 02:03:59;;;;;;;6.50;2.88;;;9.10;91.60;;;;;;5043462;28;20033;-72
2022/02/14 02:06:25;;;;;;;8.88;3.20;;;9.20;91.70;;;;;;5022609;28;20080;-71
2022/02/14 02:08:51;;;;;;;7.10;3.40;;;9.10;91.80;;;;;;5041414;28;20044;-71
2022/02/14 02:14:01;;;;;;;7.87;3.43;;;9.10;92.00;;;;;;5040455;28;20075;-71
2022/02/14 02:16:27;;;;;;;7.25;2.40;;;9.10;92.10;;;;;;5023376;28;20303;-70
2022/02/14 02:18:52;;;;;;;8.77;2.97;;;9.20;92.10;;;;;;5041663;28;20060;-72
2022/02/14 02:21:18;;;;;;;8.15;2.83;;;9.20;92.10;;;;;;5021268;28;20101;-70
2022/02/14 02:23:47;;;;;;;9.35;2.90;;;9.30;91.90;;;;;;5038456;28;20033;-71
2022/02/14 02:26:13;;;;;;;8.15;3.17;;;9.30;91.70;;;;;;5025701;28;20033;-71
2022/02/14 02:28:38;;;;;;;10.60;3.60;;;9.30;91.70;;;;;;5024504;28;20055;-71
2022/02/14 02:31:05;;;;;;;7.53;3.08;;;9.30;91.70;;;;;;5025050;28;20049;-71
2022/02/14 02:33:32;;;;;;;7.13;2.95;;;9.30;91.80;;;;;;5038834;28;20038;-71
2022/02/14 02:36:01;;;;;;;5.60;2.97;;;9.30;91.80;;;;;;5040757;28;20048;-71
2022/02/14 02:38:27;;;;;;;7.00;3.00;;;9.30;91.80;;;;;;5036094;28;20060;-71
2022/02/14 02:40:53;;;;;;;6.15;2.45;;;9.30;91.80;;;;;;5039028;28;20045;-70
2022/02/14 02:43:19;;;;;;;10.50;3.30;;;9.30;91.80;;;;;;5039136;28;20340;-70
2022/02/14 02:45:45;;;;;;;7.30;3.22;;;9.30;91.80;;;;;;5036953;28;20120;-70
2022/02/14 02:48:12;;;;;;;8.10;3.25;;;9.30;92.10;;;;;;5024529;28;20045;-71
2022/02/14 02:51:01;;;;;;;5.47;2.88;;;9.20;91.90;;;;;;5026645;28;20057;-70
2022/02/14 02:53:26;;;;;;;6.78;2.83;;;9.20;91.90;;;;;;5039172;28;20052;-70
2022/02/14 02:55:52;;;;;;;5.78;2.42;;;9.20;92.00;;;;;;5039383;28;20045;-70
2022/02/14 02:58:18;;;;;;;6.15;2.67;;;9.10;92.00;;;;;;5038636;28;20389;-70
2022/02/14 03:00:43;;;;;;;5.85;2.80;;;9.20;92.00;;;;;;5039574;28;20118;-70
2022/02/14 03:03:09;;;;;;;7.50;2.70;;;9.20;92.00;;;;;;5039965;28;20091;-70
2022/02/14 03:05:35;;;;;;;8.00;2.90;;;9.20;92.10;;;;;;5040251;28;20029;-71
2022/02/14 03:08:00;;;;;;;8.95;2.50;;;9.20;92.10;;;;;;5025791;28;20041;-69
2022/02/14 03:10:26;;;;;;;6.57;2.60;;;9.30;92.10;;;;;;5036370;28;20049;-70
2022/02/14 03:12:51;;;;;;;6.65;2.67;;;9.20;92.20;;;;;;5040863;28;20148;-71
2022/02/14 03:15:17;;;;;;;6.68;2.47;;;9.20;92.20;;;;;;5040679;28;20041;-71
2022/02/14 03:17:43;;;;;;;4.68;1.77;;;9.20;92.10;;;;;;5037545;28;20560;-71
2022/02/14 03:20:09;;;;;;;7.65;2.60;;;9.20;92.20;;;;;;5040685;28;20425;-70
2022/02/14 03:22:35;;;;;;;8.00;2.53;;;9.30;92.20;;;;;;5037912;28;20067;-71
2022/02/14 03:25:01;;;;;;;9.02;3.45;;;9.30;92.20;;;;;;5036109;28;20076;-70
2022/02/14 03:27:26;;;;;;;8.25;2.78;;;9.30;92.20;;;;;;5039558;28;20091;-71
2022/02/14 03:29:52;;;;;;;8.13;2.53;;;9.30;92.10;;;;;;5040252;28;20041;-71
2022/02/14 03:32:17;;;;;;;6.85;2.60;;;9.30;92.40;;;;;;5036652;28;20120;-71
2022/02/14 03:34:43;;;;;;;8.38;2.47;;;9.40;92.10;;;;;;5040253;28;20041;-71
2022/02/14 03:37:09;;;;;;;8.68;2.55;;;9.30;92.10;;;;;;5024947;28;20076;-71
2022/02/14 03:39:35;;;;;;;6.65;2.60;;;9.40;92.00;;;;;;5040585;28;20087;-71
2022/02/14 03:42:01;;;;;;;8.57;3.00;;;9.30;92.00;;;;;;5037501;28;20106;-71
2022/02/14 03:44:26;;;;;;;8.98;2.28;;;9.30;92.00;;;;;;5024173;28;20553;-71
2022/02/14 03:46:52;;;;;;;7.22;2.85;;;9.40;92.00;;;;;;5035927;28;20107;-72
2022/02/14 03:49:18;;;;;;;7.40;2.67;;;9.40;91.80;;;;;;5039360;28;20493;-70
2022/02/14 03:51:44;;;;;;;6.53;2.63;;;9.40;91.90;;;;;;5057160;28;20509;-70
2022/02/14 03:54:10;;;;;;;5.75;2.25;;;9.40;91.80;;;;;;5039932;28;20056;-71
2022/02/14 03:56:35;;;;;;;6.53;2.53;;;9.50;91.80;;;;;;5044812;28;20143;-71
2022/02/14 03:59:01;;;;;;;8.40;2.20;;;9.50;91.80;;;;;;5045679;28;20128;-72
2022/02/14 04:01:28;;;;;;;8.40;2.85;;;9.30;91.90;;;;;;5028692;28;20073;-73
2022/02/14 04:03:53;;;;;;;5.10;2.42;;;9.30;91.90;;;;;;5043021;28;20432;-72
2022/02/14 04:06:19;;;;;;;8.95;2.55;;;9.30;91.90;;;;;;5023416;28;20048;-72
2022/02/14 04:08:45;;;;;;;5.60;2.72;;;9.20;92.00;;;;;;5041153;28;20087;-71
2022/02/14 04:11:11;;;;;;;7.80;2.90;;;9.20;92.10;;;;;;5041900;28;20083;-71
2022/02/14 04:13:37;;;;;;;8.73;2.33;;;9.10;92.20;;;;;;5023701;28;20375;-71
2022/02/14 04:16:03;;;;;;;6.03;2.55;;;9.10;92.20;;;;;;5043086;28;20045;-71
2022/02/14 04:18:29;;;;;;;9.30;3.13;;;9.10;92.20;;;;;;5040125;28;20056;-71
2022/02/14 04:20:55;;;;;;;6.18;2.00;;;9.20;92.30;;;;;;5044243;28;20037;-71
2022/02/14 04:23:21;;;;;;;8.00;2.58;;;9.20;92.20;;;;;;5042833;28;20095;-71
2022/02/14 04:25:46;;;;;;;8.35;2.30;;;9.20;92.30;;;;;;5042255;28;20397;-71
2022/02/14 04:28:12;;;;;;;7.82;2.70;;;9.20;92.20;;;;;;5028574;28;20485;-72
2022/02/14 04:30:38;;;;;;;8.07;2.67;;;9.20;92.30;;;;;;5041048;28;20045;-72
2022/02/14 04:33:04;;;;;;;7.68;2.08;;;9.20;92.20;;;;;;5042091;28;20551;-71
2022/02/14 04:35:31;;;;;;;6.55;2.47;;;9.20;92.20;;;;;;5027913;28;20041;-72
2022/02/14 04:37:59;;;;;;;5.75;2.05;;;9.20;92.20;;;;;;5043925;28;20051;-71
2022/02/14 04:40:27;;;;;;;7.90;2.50;;;9.20;92.30;;;;;;5041648;28;20404;-71
2022/02/14 04:42:53;;;;;;;7.35;2.05;;;9.20;92.30;;;;;;5028834;28;20031;-71
2022/02/14 04:45:19;;;;;;;8.68;2.10;;;9.20;92.40;;;;;;5041890;28;20037;-71
2022/02/14 04:47:45;;;;;;;7.32;2.20;;;9.20;92.40;;;;;;5039672;28;20044;-71
2022/02/14 04:50:10;;;;;;;10.10;2.50;;;9.20;92.50;;;;;;5042950;28;20074;-71
2022/02/14 04:52:36;;;;;;;4.70;1.83;;;9.20;92.50;;;;;;5044822;28;20046;-71
2022/02/14 04:55:01;;;;;;;5.70;1.88;;;9.30;92.50;;;;;;5040122;28;20131;-72
2022/02/14 04:57:27;;;;;;;5.82;2.10;;;9.30;92.70;;;;;;5024633;28;20064;-71
2022/02/14 04:59:53;;;;;;;9.13;2.80;;;9.30;92.70;;;;;;5027263;28;20049;-72
2022/02/14 05:02:19;;;;;;;5.20;2.05;;;9.40;92.40;;;;;;5023996;28;20464;-72
2022/02/14 05:04:44;;;;;;;5.72;2.05;;;9.40;92.40;;;;;;5027462;28;20140;-71
2022/02/14 05:07:10;;;;;;;3.92;2.03;;;9.50;92.30;;;;;;5059467;28;20064;-71
2022/02/14 05:09:36;;;;;;;8.70;1.83;;;9.60;92.20;;;;;;5043281;28;20404;-71
2022/02/14 05:12:02;;;;;;;6.88;1.90;;;9.60;92.00;;;;;;5040065;28;20108;-72
2022/02/14 05:14:29;;;;;;;6.28;1.88;;;9.70;91.90;;;;;;5044723;28;20041;-71
2022/02/14 05:16:55;;;;;;;6.45;2.38;;;9.70;91.80;;;;;;5039828;28;20087;-71
2022/02/14 05:19:21;;;;;;;6.18;2.50;;;9.70;91.70;;;;;;5039739;28;20073;-71
2022/02/14 05:21:47;;;;;;;7.45;1.98;;;9.70;91.70;;;;;;5042284;28;20099;-71
2022/02/14 05:24:12;;;;;;;8.95;2.00;;;9.70;91.70;;;;;;5044265;28;20047;-71
2022/02/14 05:26:38;;;;;;;5.75;2.20;;;9.60;91.60;;;;;;5038816;28;20477;-71
2022/02/14 05:29:04;;;;;;;8.60;2.25;;;9.70;91.70;;;;;;5042533;28;20087;-71
2022/02/14 05:31:29;;;;;;;8.20;2.40;;;9.70;91.80;;;;;;5036293;28;20128;-71
2022/02/14 05:33:56;;;;;;;6.88;1.80;;;9.70;91.90;;;;;;5041202;28;20079;-71
2022/02/14 05:36:22;;;;;;;5.65;2.15;;;9.60;91.80;;;;;;5040406;28;20041;-71
2022/02/14 05:38:48;;;;;;;5.70;2.10;;;9.60;91.80;;;;;;5041886;28;20315;-71
2022/02/14 05:41:15;;;;;;;7.80;2.40;;;9.70;91.60;;;;;;5041121;28;20597;-71
2022/02/14 05:43:41;;;;;;;5.63;1.63;;;9.80;91.70;;;;;;5041294;28;20094;-71
2022/02/14 05:46:13;;;;;;;9.10;2.72;;;9.80;91.70;;;;;;5041108;28;20035;-71
2022/02/14 05:48:43;;;;;;;5.78;2.60;;;9.80;91.70;;;;;;5039396;28;20087;-72
2022/02/14 05:51:10;;;;;;;3.65;1.70;;;9.80;91.70;;;;;;5024066;28;20049;-71
2022/02/14 05:53:37;;;;;;;7.35;2.58;;;9.80;91.70;;;;;;5025168;28;20041;-71
2022/02/14 05:56:03;;;;;;;9.23;1.98;;;9.80;91.60;;;;;;5039490;28;20036;-71
2022/02/14 05:58:29;;;;;;;6.75;1.92;;;9.80;91.60;;;;;;5023712;28;20132;-71
2022/02/14 06:00:55;;;;;;;6.13;2.05;;;9.90;91.70;;;;;;5023522;28;20129;-71
2022/02/14 06:03:20;;;;;;;6.90;2.25;;;9.80;91.70;;;;;;5039964;28;20044;-71
2022/02/14 06:05:46;;;;;;;7.63;2.05;;;9.70;91.60;;;;;;5039865;28;20465;-71
2022/02/14 06:08:12;;;;;;;7.68;2.10;;;9.80;91.70;;;;;;5042885;28;20502;-72
2022/02/14 06:10:37;;;;;;;5.82;1.70;;;9.70;91.70;;;;;;5040525;28;20041;-71
2022/02/14 06:13:03;;;;;;;5.75;1.83;;;9.80;91.80;;;;;;5038614;28;20053;-71
2022/02/14 06:15:29;;;;;;;4.32;1.70;;;9.70;91.80;;;;;;5043497;28;20119;-71
2022/02/14 06:17:54;;;;;;;4.07;1.63;;;9.80;91.80;;;;;;5038843;28;20057;-72
2022/02/14 06:20:20;;;;;;;4.55;1.98;;;9.80;91.80;;;;;;5038343;28;20053;-72
2022/02/14 06:22:46;;;;;;;5.35;1.90;;;9.90;91.80;;;;;;5041308;28;20039;-71
2022/02/14 06:25:12;;;;;;;5.45;1.95;;;9.90;91.80;;;;;;5036275;28;20033;-71
2022/02/14 06:27:37;;;;;;;6.38;1.90;;;9.90;91.70;;;;;;5037759;28;20037;-71
2022/02/14 06:30:07;;;;;;;5.68;1.80;;;9.90;91.70;;;;;;5042318;28;20077;-71
2022/02/14 06:32:33;;;;;;;3.33;1.40;;;9.90;91.60;;;;;;5037805;28;20049;-71
2022/02/14 06:34:59;;;;;;;7.13;2.13;;;9.90;91.70;;;;;;5041073;28;20508;-71
2022/02/14 06:37:24;;;;;;;6.63;1.92;;;10.00;91.70;;;;;;5040723;28;20500;-71
2022/02/14 06:39:50;;;;;;;6.45;1.60;;;10.00;91.70;;;;;;5041469;28;20064;-71
2022/02/14 06:42:16;;;;;;;5.47;1.67;;;10.00;91.70;;;;;;5036262;28;20584;-71
2022/02/14 06:44:42;;;;;;;4.63;1.75;;;10.00;91.60;;;;;;5027552;28;20139;-71
2022/02/14 06:47:08;;;;;;;3.38;1.70;;;10.00;91.70;;;;;;5021266;28;20045;-72
2022/02/14 06:49:33;;;;;;;4.55;1.65;;;10.00;91.80;;;;;;5025664;28;20451;-71
2022/02/14 06:52:03;;;;;;;5.13;1.75;;;10.00;91.80;;;;;;5037888;28;20445;-72
2022/02/14 06:54:29;;;;;;;5.82;2.25;;;10.00;91.70;;;;;;5038815;28;20262;-71
2022/02/14 06:56:54;;;;;;;8.23;1.75;;;10.00;91.70;;;;;;5039729;28;20136;-71
2022/02/14 06:59:20;;;;;;;5.22;1.95;;;10.00;91.70;;;;;;5040029;28;20077;-71
2022/02/14 07:01:46;;;;;;;8.25;1.52;;;10.00;91.70;;;;;;5044323;28;20045;-71
2022/02/14 07:04:11;;;;;;;6.30;1.70;;;10.00;91.80;;;;;;5038786;28;20048;-71
2022/02/14 07:06:37;;;;;;;4.55;1.35;;;10.00;91.80;;;;;;5041724;28;20116;-71
2022/02/14 07:09:03;;;;;;;4.13;1.75;;;10.10;91.70;;;;;;5022446;28;20075;-72
2022/02/14 07:11:29;;;;;;;5.65;1.50;;;10.10;91.70;;;;;;5034985;28;20438;-72
2022/02/14 07:13:55;;;;;;;7.75;2.20;;;10.10;91.70;;;;;;5038999;28;20053;-72
2022/02/14 07:16:21;;;;;;;3.20;1.45;;;10.00;91.70;;;;;;5035410;28;20049;-72
2022/02/14 07:18:47;;;;;;;5.97;1.67;;;10.10;91.80;;;;;;5036305;28;20057;-71
2022/02/14 07:21:14;;;;;;;4.40;1.80;;;10.10;91.80;;;;;;5038588;28;20602;-71
2022/02/14 07:23:40;;;;;;;8.30;2.00;;;10.00;91.80;;;;;;5040145;28;20471;-72
2022/02/14 07:26:06;;;;;;;6.18;1.75;;;10.10;91.80;;;;;;5043205;28;20048;-71
2022/02/14 07:28:31;;;;;;;4.38;1.77;;;10.10;91.70;;;;;;5035460;28;20115;-71
2022/02/14 07:30:57;;;;;;;4.35;1.63;;;10.10;91.80;;;;;;5040622;28;20041;-71
2022/02/14 07:33:23;;;;;;;5.72;1.60;;;10.20;91.70;;;;;;5041306;28;20061;-71
2022/02/14 07:35:48;;;;;;;3.60;1.60;;;10.20;91.60;;;;;;5037429;28;20041;-71
2022/02/14 07:38:14;;;;;;;5.47;1.80;;;10.10;91.60;;;;;;5044051;28;20041;-71
2022/02/14 07:40:41;;;;;;;5.45;1.60;;;10.10;91.70;;;;;;5039815;28;20482;-71
2022/02/14 07:43:06;;;;;;;5.25;2.10;;;10.10;91.70;;;;;;5041247;28;20087;-71
2022/02/14 07:45:33;;;;;;;7.72;1.88;;;10.20;91.70;;;;;;5036300;28;20041;-71
2022/02/14 07:47:58;;;;;;;6.05;1.92;;;10.10;91.80;;;;;;5044974;28;20037;-71
2022/02/14 07:50:25;;;;;;;3.83;1.80;;;10.10;92.10;;;;;;5035545;28;20507;-71
2022/02/14 07:52:51;;;;;;;3.58;1.83;;;10.10;91.90;;;;;;5039510;28;20036;-71
2022/02/14 07:55:17;;;;;;;8.23;1.70;;;10.00;92.00;;;;;;5043396;28;20268;-71
2022/02/14 07:57:43;;;;;;;3.30;2.08;;;10.10;92.10;;;;;;5042353;28;20044;-71
2022/02/14 08:00:09;;;;;;;3.85;1.67;;;10.10;92.20;;;;;;5039709;28;20446;-71
2022/02/14 08:02:35;;;;;;;4.60;1.70;;;10.10;92.20;;;;;;5033223;28;20211;-71
2022/02/14 08:05:01;;;;;;;5.60;1.60;;;10.00;92.30;;;;;;5038111;28;20037;-71
2022/02/14 08:07:26;;;;;;;4.38;1.65;;;10.10;92.40;;;;;;5026837;28;20494;-71
2022/02/14 08:09:52;;;;;;;4.03;1.92;;;10.10;92.50;;;;;;5042442;28;20175;-72
2022/02/14 08:12:18;;;;;;;5.25;1.73;;;10.00;92.60;;;;;;5026715;28;20463;-71
2022/02/14 08:14:46;;;;;;;4.10;1.40;;;10.00;92.80;;;;;;5038795;28;20076;-71
2022/02/14 08:17:12;;;;;;;5.70;1.90;;;10.10;92.90;;;;;;5037509;28;20055;-71
2022/02/14 08:19:38;;;;;;;4.57;1.58;;;10.10;93.00;;;;;;5040802;28;20163;-71
2022/02/14 08:22:04;;;;;;;5.22;1.63;;;10.10;93.10;;;;;;5027323;28;20120;-72
2022/02/14 08:24:30;;;;;;;4.15;1.73;;;10.00;93.30;;;;;;5025039;28;20041;-71
2022/02/14 08:26:56;;;;;;;5.40;1.73;;;10.00;93.30;;;;;;5037771;28;20041;-72
2022/02/14 08:29:22;;;;;;;2.08;1.00;;;10.00;93.40;;;;;;5038809;28;20051;-71
2022/02/14 08:31:47;;;;;;;5.40;1.15;;;10.10;93.50;;;;;;5027023;28;20424;-72
2022/02/14 08:34:14;;;;;;;5.25;1.50;;;10.00;93.60;;;;;;5040852;28;20037;-71
2022/02/14 08:36:41;;;;;;;2.40;1.23;;;10.00;93.80;;;;;;5035903;28;20045;-73
2022/02/14 08:39:07;;;;;;;4.13;1.73;;;10.10;94.20;;;;;;5041601;28;20057;-71
2022/02/14 08:41:32;;;;;;;3.53;1.17;;;10.20;93.90;;;;;;5042891;28;20129;-72
2022/02/14 08:43:59;;;;;;;4.40;1.42;;;10.20;94.00;;;;;;5045341;28;20374;-72
2022/02/14 08:46:25;;;;;;;4.97;1.50;;;10.10;94.10;;;;;;5021254;28;20056;-72
2022/02/14 08:48:52;;;;;;;3.47;1.40;;;10.20;94.20;;;;;;5038765;28;20056;-72
2022/02/14 08:51:20;;;;;;;3.65;1.63;;;10.20;94.40;;;;;;5040552;28;20135;-72
2022/02/14 08:53:46;;;;;;;4.10;1.58;;;10.10;94.50;;;;;;5044115;28;20395;-72
2022/02/14 08:56:12;;;;;;;4.63;1.50;;;10.10;94.60;;;;;;5045218;28;20040;-73
2022/02/14 08:58:42;;;;;;;4.93;1.90;;;10.10;94.70;;;;;;5023831;28;20099;-72
2022/02/14 09:01:08;;;;;;;4.70;1.75;;;10.10;95.00;;;;;;5043689;28;20045;-72
2022/02/14 09:03:35;;;;;;;3.33;1.80;;;10.00;95.10;;;;;;5041173;28;20053;-72
2022/02/14 09:06:01;;;;;;;3.70;1.58;;;10.00;95.40;;;;;;5042673;28;20127;-72
2022/02/14 09:08:27;;;;;;;3.38;1.38;;;10.00;95.60;;;;;;5044646;28;20072;-72
2022/02/14 09:10:53;;;;;;;4.30;1.73;;;10.00;96.00;;;;;;5030230;28;20409;-72
2022/02/14 09:13:19;;;;;;;2.05;1.13;;;10.00;96.40;;;;;;5038148;28;20520;-72
2022/02/14 09:15:45;;;;;;;5.32;1.58;;;9.90;96.80;;;;;;5044017;28;20053;-72
2022/02/14 09:18:11;;;;;;;2.95;1.45;;;9.80;97.60;;;;;;5040708;28;20129;-72
2022/02/14 09:20:37;;;;;;;3.83;1.88;;;9.70;98.10;;;;;;5036532;28;20073;-71
2022/02/14 09:23:03;;;;;;;3.97;1.88;;;9.60;98.70;;;;;;5026719;28;20590;-71
2022/02/14 09:25:29;;;;;;;4.38;1.88;;;9.50;99.40;;;;;;5059499;28;20068;-72
2022/02/14 09:27:55;;;;;;;3.58;1.52;;;9.40;99.80;;;;;;5029460;28;20068;-72
2022/02/14 09:30:22;;;;;;;3.55;2.17;;;9.30;99.90;;;;;;5023311;28;20044;-72
2022/02/14 09:32:49;;;;;;;3.15;1.83;;;9.20;99.90;;;;;;5035986;28;20052;-72
2022/02/14 09:35:26;;;;;;;5.15;2.35;;;9.10;99.90;;;;;;5040493;28;20153;-72
2022/02/14 09:37:56;;;;;;;3.08;2.30;;;9.20;99.90;;;;;;5041806;28;20398;-72
2022/02/14 09:40:23;;;;;;;3.88;2.78;;;9.10;99.90;;;;;;5038836;28;20049;-72
2022/02/14 09:42:53;;;;;;;3.78;2.63;;;9.10;99.90;;;;;;5040374;28;20413;-72
2022/02/14 09:45:22;;;;;;;3.05;2.70;;;9.20;99.90;;;;;;5041702;28;20108;-72
2022/02/14 09:47:54;;;;;;;3.45;2.58;;;9.20;99.90;;;;;;5036834;28;20516;-73
2022/02/14 09:50:20;;;;;;;2.90;2.60;;;9.30;99.90;;;;;;5029993;28;20085;-73
2022/02/14 09:52:46;;;;;;;4.40;2.35;;;9.30;99.90;;;;;;5029645;28;20489;-73
2022/02/14 09:55:11;;;;;;;2.75;2.33;;;9.50;99.90;;;;;;5039799;28;20115;-73
2022/02/14 09:57:37;;;;;;;4.03;2.38;;;9.60;99.90;;;;;;5043133;28;20421;-73
2022/02/14 10:00:04;;;;;;;2.70;2.15;;;9.70;99.90;;;;;;5044982;28;20134;-74
2022/02/14 10:02:32;;;;;;;2.97;1.92;;;9.80;99.90;;;;;;5043228;28;20049;-74
2022/02/14 10:05:04;;;;;;;3.35;2.30;;;9.80;99.90;;;;;;5047231;28;20048;-73
2022/02/14 10:07:50;;;;;;;2.10;1.90;;;9.90;99.90;;;;;;5043318;28;20045;-73
2022/02/14 10:10:21;;;;;;;3.67;1.88;;;9.90;99.90;;;;;;5026990;28;20447;-74
2022/02/14 10:12:55;;;;;;;2.90;1.88;;;9.90;99.90;;;;;;5027202;28;20048;-74
2022/02/14 10:15:22;;;;;;;4.53;1.85;;;9.90;99.90;;;;;;5047063;28;20055;-74
2022/02/14 10:17:54;;;;;;;3.63;1.85;;;10.00;99.90;;;;;;5041241;28;20432;-73
2022/02/14 10:20:24;;;;;;;2.13;1.70;;;10.00;99.90;;;;;;5043586;28;20064;-73
2022/02/14 10:23:09;;;;;;;3.38;1.75;;;10.00;99.90;;;;;;5025770;28;20460;-73
2022/02/14 10:25:44;;;;;;;3.15;1.40;;;10.30;99.90;;;;;;5047204;28;20178;-73
2022/02/14 10:28:22;;;;;;;2.05;1.50;;;10.70;99.90;;;;;;5039281;28;20455;-72
2022/02/14 10:30:55;;;;;;;3.05;1.48;;;11.50;99.90;;;;;;5028755;28;20493;-72
2022/02/14 10:33:21;;;;;;;2.72;1.60;;;12.30;99.90;;;;;;5043441;28;20094;-72
2022/02/14 10:35:47;;;;;;;3.13;1.40;;;12.60;99.90;;;;;;5019607;28;20565;-72
2022/02/14 10:38:13;;;;;;;3.13;1.67;;;12.50;99.90;;;;;;5043677;28;20047;-72
2022/02/14 10:40:42;;;;;;;3.80;1.70;;;12.20;99.90;;;;;;5042371;28;20049;-73
2022/02/14 10:43:07;;;;;;;3.60;1.70;;;11.90;99.90;;;;;;5040914;28;20102;-72
2022/02/14 10:45:36;;;;;;;3.47;1.55;;;11.70;99.80;;;;;;5034195;28;20045;-72
2022/02/14 10:48:04;;;;;;;3.53;1.70;;;11.40;99.90;;;;;;5035676;28;20049;-73
2022/02/14 10:50:30;;;;;;;4.78;1.55;;;11.20;99.90;;;;;;5021158;28;20641;-73
2022/02/14 10:53:01;;;;;;;3.53;1.50;;;11.00;99.90;;;;;;5039154;28;20040;-73
2022/02/14 10:55:34;;;;;;;4.45;1.70;;;11.00;99.90;;;;;;5036876;28;20045;-73
2022/02/14 10:58:01;;;;;;;3.75;1.70;;;11.00;99.90;;;;;;5040012;28;20049;-72
2022/02/14 11:00:36;;;;;;;2.42;1.38;;;10.90;99.90;;;;;;5038227;28;20081;-72
2022/02/14 11:03:06;;;;;;;3.30;1.83;;;10.80;99.90;;;;;;5038106;28;20124;-73
2022/02/14 11:05:33;;;;;;;5.00;1.90;;;10.70;99.90;;;;;;5025030;28;20974;-72
2022/02/14 11:08:01;;;;;;;3.47;1.70;;;10.60;99.90;;;;;;5040893;28;20528;-72
2022/02/14 11:10:27;;;;;;;3.97;2.17;;;10.60;99.90;;;;;;5036765;28;20045;-72
2022/02/14 11:12:58;;;;;;;4.95;1.83;;;10.60;99.90;;;;;;5025362;28;20127;-73
2022/02/14 11:15:30;;;;;;;4.85;1.83;;;10.70;99.90;;;;;;5042341;28;20536;-72
2022/02/14 11:18:06;;;;;;;4.05;1.85;;;11.30;99.90;;;;;;5036472;28;20500;-72
2022/02/14 11:20:32;;;;;;;3.28;1.95;;;12.60;99.90;;;;;;5021417;28;20048;-72
2022/02/14 11:22:59;;;;;;;4.22;1.48;;;13.50;98.90;;;;;;5043437;28;20033;-72
2022/02/14 11:25:49;;;;;;;3.28;1.48;;;13.30;96.90;;;;;;5025757;28;20140;-72
2022/02/14 11:28:26;;;;;;;2.55;1.60;;;12.80;97.00;;;;;;5037766;28;20052;-71
2022/02/14 11:31:14;;;;;;;3.10;1.50;;;12.30;96.90;;;;;;5025894;28;20111;-71
2022/02/14 11:33:50;;;;;;;3.47;1.55;;;11.90;96.80;;;;;;5038723;28;20064;-72
2022/02/14 11:36:16;;;;;;;2.78;1.45;;;11.60;97.40;;;;;;5038750;28;20048;-72
2022/02/14 11:38:46;;;;;;;2.50;1.65;;;11.50;97.10;;;;;;5037301;28;20053;-72
2022/02/14 11:41:36;;;;;;;4.45;1.83;;;11.40;98.00;;;;;;5038534;28;20060;-72
2022/02/14 11:44:20;;;;;;;2.63;1.42;;;12.50;98.00;;;;;;5040764;28;20395;-72
2022/02/14 11:46:55;;;;;;;3.37;1.53;;;13.70;96.20;;;;;;5021567;28;20560;-72
2022/02/14 11:49:21;;;;;;;;;;;14.10;94.40;;;;;;5037582;28;20048;-72
2022/02/14 11:51:50;;;;;;;4.50;1.48;;;13.60;92.60;;;;;;5036468;28;19921;-72
2022/02/14 11:54:40;;;;;;;2.92;1.38;;;13.10;92.90;;;;;;5039173;28;20124;-71
2022/02/14 11:57:14;;;;;;;4.30;1.30;;;12.70;92.60;;;;;;5036721;28;20103;-72
2022/02/14 11:59:40;;;;;;;;;;;12.30;92.80;;;;;;5038645;28;20128;-72
2022/02/14 12:02:06;;;;;;;3.60;1.20;;;12.00;93.30;;;;;;5039544;28;20094;-72
2022/02/14 12:04:41;;;;;;;3.08;1.15;;;11.80;93.60;;;;;;5037569;28;20048;-72
2022/02/14 12:07:26;;;;;;;4.57;1.50;;;11.70;93.90;;;;;;5036837;28;20493;-72
2022/02/14 12:10:00;;;;;;;3.53;1.15;;;11.70;93.60;;;;;;5038344;28;20160;-73
2022/02/14 12:12:49;;;;;;;3.47;0.90;;;11.60;93.70;;;;;;5021915;28;20057;-71
2022/02/14 12:21:05;;;;;;;2.47;1.05;;;11.30;92.90;;;;;;5040694;28;20041;-72
2022/02/14 12:23:38;;;;;;;2.30;1.25;;;11.20;93.40;;;;;;5041628;28;20087;-72
2022/02/14 12:26:08;;;;;;;4.22;1.33;;;11.10;93.80;;;;;;5039418;28;20586;-72
2022/02/14 12:28:35;;;;;;;4.07;1.60;;;11.00;94.00;;;;;;5039717;28;20209;-72
2022/02/14 12:31:03;;;;;;;4.25;1.23;;;11.00;94.00;;;;;;5040950;28;20099;-72
2022/02/14 12:33:29;;;;;;;5.88;1.25;;;10.90;94.00;;;;;;5042396;28;20539;-72
2022/02/14 12:35:57;;;;;;;5.63;1.20;;;10.90;93.90;;;;;;5038184;28;20080;-72
2022/02/14 12:38:31;;;;;;;4.28;1.10;;;10.90;93.40;;;;;;5023867;28;20541;-71
2022/02/14 12:40:59;;;;;;;3.15;0.68;;;10.90;93.30;;;;;;5021303;28;20073;-72
2022/02/14 12:43:33;;;;;;;1.85;0.43;;;11.00;93.00;;;;;;5025031;28;20087;-72
2022/02/14 12:46:02;;;;;;;1.88;0.40;;;11.00;92.40;;;;;;5024183;28;20040;-72
2022/02/14 12:48:30;;;;;;;3.50;0.30;;;11.10;91.70;;;;;;5040685;28;20072;-72
2022/02/14 12:50:56;;;;;;;1.60;0.40;;;11.00;91.40;;;;;;5041875;28;20049;-72
2022/02/14 12:53:22;;;;;;;2.97;0.55;;;11.00;90.90;;;;;;5040310;28;20052;-72
2022/02/14 12:55:47;;;;;;;3.88;0.50;;;11.00;91.40;;;;;;5024861;28;20053;-72
2022/02/14 12:58:15;;;;;;;1.85;0.52;;;11.00;91.60;;;;;;5042705;28;20032;-71
2022/02/14 13:00:43;;;;;;;4.47;0.80;;;10.90;91.60;;;;;;5035374;28;20037;-72
2022/02/14 13:03:14;;;;;;;3.85;0.90;;;10.90;91.80;;;;;;5021571;28;20611;-72